createdAt,value
2018-07-16T00:01:01.284Z,7.2
2018-07-16T00:06:01.284Z,7.4
2018-07-16T00:11:01.275Z,7.0
2018-07-16T00:26:01.260Z,6.8
2018-07-16T00:31:01.252Z,7.1
2018-07-16T00:36:01.251Z,7.1
2018-07-16T00:47:01.282Z,7.2
2018-07-16T00:52:01.245Z,7.9
2018-07-16T00:57:01.245Z,8.4
2018-07-16T01:02:01.246Z,8.8
2018-07-16T01:07:01.251Z,9.0
2018-07-16T01:17:01.249Z,8.4
2018-07-16T01:22:01.252Z,7.6
2018-07-16T01:27:01.237Z,7.4
2018-07-16T01:32:01.245Z,7.4
2018-07-16T01:37:01.241Z,7.6
2018-07-16T01:42:01.246Z,8.1
2018-07-16T01:47:01.251Z,8.5
2018-07-16T01:52:01.257Z,8.4
2018-07-16T01:57:01.253Z,8.6
2018-07-16T02:02:02.287Z,8.7
2018-07-16T02:08:01.256Z,8.8
2018-07-16T02:13:01.243Z,8.9
2018-07-16T02:18:01.242Z,9.0
2018-07-16T02:23:01.238Z,9.2
2018-07-16T02:28:01.578Z,9.4
2018-07-16T02:33:01.253Z,9.7
2018-07-16T02:38:01.258Z,9.6
2018-07-16T02:44:06.418Z,10.0
2018-07-16T02:49:06.286Z,9.7
2018-07-16T02:54:06.218Z,9.5
2018-07-16T02:59:06.315Z,9.4
2018-07-16T03:04:01.255Z,9.6
2018-07-16T03:09:01.311Z,9.5
2018-07-16T03:14:01.219Z,10.1
2018-07-16T03:19:01.251Z,10.5
2018-07-16T03:24:01.253Z,11.0
2018-07-16T03:29:01.239Z,11.1
2018-07-16T03:34:01.247Z,11.6
2018-07-16T03:39:01.246Z,11.8
2018-07-16T03:44:01.216Z,12.3
2018-07-16T03:49:01.297Z,11.6
2018-07-16T03:54:01.218Z,11.9
2018-07-16T03:59:01.250Z,11.9
2018-07-16T04:04:01.215Z,11.5
2018-07-16T04:09:01.564Z,10.8
2018-07-16T04:14:01.240Z,11.1
2018-07-16T04:19:01.246Z,10.5
2018-07-16T04:24:01.242Z,10.2
2018-07-16T04:29:01.311Z,10.2
2018-07-16T04:34:01.250Z,10.9
2018-07-16T04:39:01.281Z,11.2
2018-07-16T04:44:01.255Z,11.9
2018-07-16T04:49:01.252Z,12.8
2018-07-16T04:54:01.206Z,13.6
2018-07-16T04:59:01.365Z,14.2
2018-07-16T05:04:01.190Z,15.2
2018-07-16T05:09:01.313Z,15.6
2018-07-16T05:14:11.252Z,15.3
2018-07-16T05:19:01.257Z,15.6
2018-07-16T05:24:01.393Z,15.4
2018-07-16T05:29:01.325Z,14.9
2018-07-16T05:34:01.243Z,15.0
2018-07-16T05:39:01.249Z,15.2
2018-07-16T05:44:01.239Z,14.6
2018-07-16T05:54:01.313Z,14.9
2018-07-16T05:59:01.370Z,15.0
2018-07-16T06:09:01.317Z,15.2
2018-07-16T06:14:01.229Z,15.1
2018-07-16T06:19:01.322Z,15.1
2018-07-16T06:24:01.465Z,14.4
2018-07-16T06:34:01.312Z,14.0
2018-07-16T06:39:01.379Z,13.5
2018-07-16T06:44:01.246Z,12.3
2018-07-16T06:49:01.340Z,12.3
2018-07-16T06:54:01.440Z,12.1
2018-07-16T06:59:01.313Z,12.3
2018-07-16T07:04:01.221Z,12.8
2018-07-16T07:09:02.328Z,12.8
2018-07-16T07:14:01.241Z,13.8
2018-07-16T07:19:01.249Z,13.8
2018-07-16T07:24:01.240Z,13.4
2018-07-16T07:29:01.244Z,13.2
2018-07-16T07:34:01.442Z,13.5
2018-07-16T07:39:01.309Z,12.9
2018-07-16T07:44:01.224Z,12.9
2018-07-16T07:49:01.255Z,12.9
2018-07-16T07:54:01.201Z,13.0
2018-07-16T07:59:01.304Z,13.6
2018-07-16T08:04:01.245Z,13.6
2018-07-16T08:09:01.331Z,13.2
2018-07-16T08:14:06.286Z,13.6
2018-07-16T08:19:06.450Z,13.5
2018-07-16T08:24:06.268Z,13.1
2018-07-16T08:29:07.284Z,12.8
2018-07-16T08:35:06.205Z,13.0
2018-07-16T08:40:01.303Z,12.9
2018-07-16T08:45:06.326Z,13.1
2018-07-16T08:55:01.302Z,13.2
2018-07-16T09:00:01.258Z,13.5
2018-07-16T09:05:01.248Z,13.7
2018-07-16T09:10:01.428Z,13.7
2018-07-16T09:15:01.171Z,12.9
2018-07-16T09:20:01.432Z,13.5
2018-07-16T09:25:01.501Z,13.4
2018-07-16T09:30:01.310Z,13.4
2018-07-16T09:35:01.239Z,13.8
2018-07-16T09:40:01.371Z,14.4
2018-07-16T09:45:01.257Z,14.2
2018-07-16T09:50:01.309Z,13.8
2018-07-16T09:56:01.268Z,13.4
2018-07-16T10:01:01.301Z,12.6
2018-07-16T10:06:01.238Z,12.2
2018-07-16T10:11:01.304Z,12.2
2018-07-16T10:16:01.271Z,12.1
2018-07-16T10:21:01.372Z,12.5
2018-07-16T10:26:01.280Z,12.5
2018-07-16T10:31:01.300Z,12.4
2018-07-16T10:36:06.243Z,12.0
2018-07-16T10:41:01.328Z,12.2
2018-07-16T10:46:01.239Z,12.1
2018-07-16T10:51:01.384Z,12.3
2018-07-16T10:56:01.243Z,12.3
2018-07-16T11:01:01.374Z,12.4
2018-07-16T11:06:01.186Z,12.6
2018-07-16T11:11:01.330Z,12.2
2018-07-16T11:21:06.243Z,12.3
2018-07-16T11:26:01.279Z,12.8
2018-07-16T11:31:01.338Z,12.5
2018-07-16T11:36:06.252Z,12.3
2018-07-16T11:41:01.291Z,12.1
2018-07-16T11:46:01.427Z,12.0
2018-07-16T11:51:01.404Z,11.3
2018-07-16T11:56:01.258Z,11.6
2018-07-16T12:01:06.370Z,12.8
2018-07-16T12:11:06.241Z,13.1
2018-07-16T12:16:01.253Z,13.8
2018-07-16T12:21:01.313Z,13.5
2018-07-16T12:26:01.440Z,13.0
2018-07-16T12:36:01.304Z,13.6
2018-07-16T12:41:01.369Z,14.0
2018-07-16T12:46:01.244Z,14.1
2018-07-16T12:51:01.306Z,14.5
2018-07-16T12:56:01.245Z,14.2
2018-07-16T13:01:01.307Z,14.0
2018-07-16T13:06:01.306Z,13.1
2018-07-16T13:11:01.247Z,12.5
2018-07-16T13:16:01.368Z,11.8
2018-07-16T13:21:01.378Z,11.5
2018-07-16T13:26:06.237Z,11.1
2018-07-16T13:31:01.243Z,11.2
2018-07-16T13:36:01.250Z,11.0
2018-07-16T13:41:01.242Z,10.6
2018-07-16T13:46:01.244Z,10.5
2018-07-16T13:51:01.371Z,11.0
2018-07-16T13:56:01.314Z,11.0
2018-07-16T14:01:01.384Z,11.0
2018-07-16T14:06:01.207Z,11.3
2018-07-16T14:11:01.249Z,11.2
2018-07-16T14:16:01.242Z,10.7
2018-07-16T14:21:01.328Z,10.5
2018-07-16T14:26:01.190Z,10.7
2018-07-16T14:31:01.253Z,10.6
2018-07-16T14:36:01.244Z,10.3
2018-07-16T14:41:01.254Z,10.2
2018-07-16T14:46:01.256Z,9.8
2018-07-16T14:51:01.280Z,10.0
2018-07-16T14:56:01.240Z,10.1
2018-07-16T15:01:01.305Z,10.4
2018-07-16T15:11:06.382Z,11.4
2018-07-16T15:16:01.235Z,11.2
2018-07-16T15:21:02.341Z,11.2
2018-07-16T15:26:01.222Z,11.0
2018-07-16T15:32:01.310Z,11.0
2018-07-16T15:37:01.242Z,10.8
2018-07-16T15:42:01.238Z,10.9
2018-07-16T15:52:01.370Z,11.0
2018-07-16T16:07:01.389Z,11.1
2018-07-16T16:12:01.252Z,10.9
2018-07-16T16:27:01.304Z,10.5
2018-07-16T16:37:01.373Z,10.8
2018-07-16T16:42:01.269Z,10.4
2018-07-16T16:47:01.216Z,10.2
2018-07-16T16:52:01.388Z,10.3
2018-07-16T16:57:01.254Z,9.9
2018-07-16T17:03:01.370Z,8.7
2018-07-16T17:08:01.240Z,8.6
2018-07-16T17:13:01.365Z,8.4
2018-07-16T17:18:01.334Z,7.9
2018-07-16T17:23:01.311Z,8.3
2018-07-16T17:28:01.244Z,8.8
2018-07-16T17:33:01.378Z,8.6
2018-07-16T17:38:01.326Z,8.8
2018-07-16T17:43:01.433Z,8.8
2018-07-16T17:48:01.241Z,8.5
2018-07-16T17:53:01.321Z,8.4
2018-07-16T18:08:01.343Z,8.4
2018-07-16T18:13:01.371Z,8.6
2018-07-16T18:30:00.787Z,9.0
2018-07-16T18:35:00.679Z,10.0
2018-07-16T18:40:00.723Z,9.7
2018-07-16T18:45:00.725Z,9.3
2018-07-16T18:50:00.767Z,9.0
2018-07-16T19:00:00.786Z,8.1
2018-07-16T19:15:00.710Z,8.4
2018-07-16T19:20:00.715Z,8.3
2018-07-16T19:25:00.707Z,8.5
2018-07-16T19:30:00.841Z,8.4
2018-07-16T19:35:00.745Z,8.9
2018-07-16T19:40:00.785Z,9.0
2018-07-16T19:45:00.890Z,9.1
2018-07-16T19:50:00.780Z,9.5
2018-07-16T20:00:00.754Z,9.4
2018-07-16T20:05:00.724Z,9.8
2018-07-16T20:10:00.965Z,10.0
2018-07-16T20:15:00.889Z,9.8
2018-07-16T20:20:00.795Z,10.0
2018-07-16T20:25:00.708Z,10.3
2018-07-16T20:30:00.857Z,9.8
2018-07-16T20:35:00.729Z,9.8
2018-07-16T20:40:00.800Z,10.0
2018-07-16T20:45:00.740Z,10.2
2018-07-16T20:50:00.805Z,10.1
2018-07-16T20:55:00.708Z,10.3
2018-07-16T21:00:00.869Z,10.4
2018-07-16T21:05:00.746Z,10.2
2018-07-16T21:10:00.779Z,9.7
2018-07-16T21:15:00.744Z,9.7
2018-07-16T21:20:00.804Z,9.8
2018-07-16T21:25:00.717Z,10.0
2018-07-16T21:30:00.956Z,9.8
2018-07-16T21:35:00.751Z,10.3
2018-07-16T21:40:00.884Z,10.6
2018-07-16T21:45:00.757Z,10.8
2018-07-16T21:50:00.846Z,11.3
2018-07-16T21:55:00.720Z,12.0
2018-07-16T22:00:00.822Z,12.5
2018-07-16T22:05:00.763Z,12.2
2018-07-16T22:10:00.892Z,11.8
2018-07-16T22:15:00.828Z,11.9
2018-07-16T22:20:00.833Z,12.1
2018-07-16T22:25:00.851Z,11.5
2018-07-16T22:30:00.765Z,11.7
2018-07-16T22:35:00.772Z,12.1
2018-07-16T22:40:00.776Z,12.0
2018-07-16T22:45:00.773Z,12.0
2018-07-16T22:50:00.840Z,12.5
2018-07-16T22:55:00.783Z,12.4
2018-07-16T23:00:00.841Z,12.6
2018-07-16T23:05:00.804Z,13.0
2018-07-16T23:10:00.854Z,12.6
2018-07-16T23:15:00.784Z,13.0
2018-07-16T23:20:00.830Z,13.0
2018-07-16T23:25:00.838Z,13.3
2018-07-16T23:30:00.846Z,12.8
2018-07-16T23:35:00.793Z,13.2
2018-07-16T23:45:00.854Z,13.8
2018-07-16T23:50:00.793Z,13.8
